地図

経路データ

SID SEASON NUMBER BASIN SUBBASIN NAME ISO_TIME NATURE LAT LON WMO_WIND WMO_PRES WMO_AGENCY TRACK_TYPE DIST2LAND LANDFALL IFLAG USA_AGENCY USA_ATCF_ID USA_LAT USA_LON USA_RECORD USA_STATUS USA_WIND USA_PRES USA_SSHS USA_R34_NE USA_R34_SE USA_R34_SW USA_R34_NW USA_R50_NE USA_R50_SE USA_R50_SW USA_R50_NW USA_R64_NE USA_R64_SE USA_R64_SW USA_R64_NW USA_POCI USA_ROCI USA_RMW USA_EYE TOKYO_LAT TOKYO_LON TOKYO_GRADE TOKYO_WIND TOKYO_PRES TOKYO_R50_DIR TOKYO_R50_LONG TOKYO_R50_SHORT TOKYO_R30_DIR TOKYO_R30_LONG TOKYO_R30_SHORT TOKYO_LAND CMA_LAT CMA_LON CMA_CAT CMA_WIND CMA_PRES HKO_LAT HKO_LON HKO_CAT HKO_WIND HKO_PRES NEWDELHI_LAT NEWDELHI_LON NEWDELHI_GRADE NEWDELHI_WIND NEWDELHI_PRES NEWDELHI_CI NEWDELHI_DP NEWDELHI_POCI REUNION_LAT REUNION_LON REUNION_TYPE REUNION_WIND REUNION_PRES REUNION_TNUM REUNION_CI REUNION_RMW REUNION_R34_NE REUNION_R34_SE REUNION_R34_SW REUNION_R34_NW REUNION_R50_NE REUNION_R50_SE REUNION_R50_SW REUNION_R50_NW REUNION_R64_NE REUNION_R64_SE REUNION_R64_SW REUNION_R64_NW BOM_LAT BOM_LON BOM_TYPE BOM_WIND BOM_PRES BOM_TNUM BOM_CI BOM_RMW BOM_R34_NE BOM_R34_SE BOM_R34_SW BOM_R34_NW BOM_R50_NE BOM_R50_SE BOM_R50_SW BOM_R50_NW BOM_R64_NE BOM_R64_SE BOM_R64_SW BOM_R64_NW BOM_ROCI BOM_POCI BOM_EYE BOM_POS_METHOD BOM_PRES_METHOD NADI_LAT NADI_LON NADI_CAT NADI_WIND NADI_PRES WELLINGTON_LAT WELLINGTON_LON WELLINGTON_WIND WELLINGTON_PRES DS824_LAT DS824_LON DS824_STAGE DS824_WIND DS824_PRES TD9636_LAT TD9636_LON TD9636_STAGE TD9636_WIND TD9636_PRES TD9635_LAT TD9635_LON TD9635_WIND TD9635_PRES TD9635_ROCI NEUMANN_LAT NEUMANN_LON NEUMANN_CLASS NEUMANN_WIND NEUMANN_PRES MLC_LAT MLC_LON MLC_CLASS MLC_WIND MLC_PRES USA_GUST BOM_GUST BOM_GUST_PER REUNION_GUST REUNION_GUST_PER USA_SEAHGT USA_SEARAD_NE USA_SEARAD_SE USA_SEARAD_SW USA_SEARAD_NW STORM_SPEED STORM_DIR
1991251N12138 1991 62 WP MM KINNA 1991-09-08 00:00:00 NR 11.9000 138.000 main 1325 1325 O_____________ jtwc_wp WP191991 11.9000 138.000 15 -1 16 126
1991251N12138 1991 62 WP MM KINNA 1991-09-08 03:00:00 NR 11.4402 138.646 main 1378 1378 P_____________ WP191991 11.4402 138.646 15 -1 15 122
1991251N12138 1991 62 WP MM KINNA 1991-09-08 06:00:00 NR 11.1000 139.300 main 1384 1380 O_____________ jtwc_wp WP191991 11.1000 139.300 15 -1 14 110
1991251N12138 1991 62 WP MM KINNA 1991-09-08 09:00:00 NR 10.9675 139.965 main 1397 1397 P_____________ WP191991 10.9675 139.965 15 -1 13 94
1991251N12138 1991 62 WP MM KINNA 1991-09-08 12:00:00 NR 11.0000 140.600 main 1420 1420 O_____________ jtwc_wp WP191991 11.0000 140.600 15 -1 12 84
1991251N12138 1991 62 WP MM KINNA 1991-09-08 15:00:00 NR 11.1050 141.202 main 1456 1456 P_____________ WP191991 11.1050 141.202 15 -1 11 74
1991251N12138 1991 62 WP MM KINNA 1991-09-08 18:00:00 NR 11.3000 141.700 main 1496 1496 O_____________ jtwc_wp WP191991 11.3000 141.700 15 -1 9 64
1991251N12138 1991 62 WP MM KINNA 1991-09-08 21:00:00 NR 11.5199 142.060 main 1529 1529 P_____________ WP191991 11.5199 142.060 17 -1 8 50
1991251N12138 1991 62 WP MM KINNA 1991-09-09 00:00:00 NR 11.8000 142.300 main 1568 1568 O_____________ jtwc_wp WP191991 11.8000 142.300 20 -1 8 36
1991251N12138 1991 62 WP MM KINNA 1991-09-09 03:00:00 NR 12.1350 142.510 main 1606 1606 P_____________ WP191991 12.1350 142.510 20 -1 8 23
1991251N12138 1991 62 WP MM KINNA 1991-09-09 06:00:00 NR 12.5000 142.600 main 1652 1652 O_____________ jtwc_wp WP191991 12.5000 142.600 20 -1 7 5
1991251N12138 1991 62 WP MM KINNA 1991-09-09 09:00:00 NR 12.8425 142.560 main 1684 1684 P_____________ WP191991 12.8425 142.560 20 -1 7 345
1991251N12138 1991 62 WP MM KINNA 1991-09-09 12:00:00 NR 13.2000 142.400 main 1721 1721 O_____________ jtwc_wp WP191991 13.2000 142.400 20 -1 8 334
1991251N12138 1991 62 WP MM KINNA 1991-09-09 15:00:00 NR 13.5849 142.195 main 1756 1756 P_____________ WP191991 13.5849 142.195 20 -1 9 329
1991251N12138 1991 62 WP MM KINNA 1991-09-09 18:00:00 NR 14.0000 141.900 main 1780 1754 O_____________ jtwc_wp WP191991 14.0000 141.900 20 -1 11 323
1991251N12138 1991 62 WP MM KINNA 1991-09-09 21:00:00 NR 14.4350 141.530 main 1745 1707 P_____________ WP191991 14.4350 141.530 22 -1 11 307
1991251N12138 1991 62 WP MM KINNA 1991-09-10 00:00:00 TS 14.6286 141.029 1006 tokyo main 1697 1662 OOOO__________ jtwc_wp WP191991 14.9000 141.100 25 -1 14.0000 141.000 2 1006 0 0 0 14.0000 141.000 1 23 1005 14.8000 140.800 TD 25 1000 11 303
1991251N12138 1991 62 WP MM KINNA 1991-09-10 03:00:00 TS 15.0025 140.614 main 1662 1627 PPPP__________ WP191991 15.3849 140.672 25 -1 14.5927 140.636 2 1005 0 0 14.4651 140.723 1 23 1005 15.1851 140.368 TD 25 1000 12 316
1991251N12138 1991 62 WP MM KINNA 1991-09-10 06:00:00 TS 15.4615 140.200 1004 tokyo main 1629 1597 OOOO__________ jtwc_wp WP191991 15.9000 140.200 25 -1 15.2000 140.300 2 1004 0 0 0 15.0000 140.400 1 23 1005 15.6000 139.900 TD 25 1000 13 320
1991251N12138 1991 62 WP MM KINNA 1991-09-10 09:00:00 TS 15.9986 139.760 main 1599 1562 PPPP__________ WP191991 16.4348 139.680 25 -1 15.8347 139.994 2 1004 0 0 15.6549 139.995 1 26 1003 16.0699 139.372 TD 27 1000 15 322
1991251N12138 1991 62 WP MM KINNA 1991-09-10 12:00:00 TS 16.6250 139.250 1004 tokyo main 1565 1529 OOOO__________ jtwc_wp WP191991 17.0000 139.100 25 -1 16.5000 139.600 2 1004 0 0 0 16.4000 139.500 1 29 1002 16.6000 138.800 TD 30 1000 17 322
1991251N12138 1991 62 WP MM KINNA 1991-09-10 15:00:00 TS 17.3032 138.696 main 1529 1485 PPPP__________ WP191991 17.5995 138.502 27 -1 17.2068 139.062 2 1003 0 0 17.2217 138.990 1 29 1002 17.1847 138.230 TD 32 997 18 319
1991251N12138 1991 62 WP MM KINNA 1991-09-10 18:00:00 TS 17.9750 138.000 1002 tokyo main 1490 1429 OOOO__________ jtwc_wp WP191991 18.2000 137.800 30 -1 17.9000 138.300 2 1002 0 0 0 18.0000 138.300 1 29 1002 17.8000 137.600 TS 35 995 20 309
1991251N12138 1991 62 WP MM KINNA 1991-09-10 21:00:00 TS 18.5673 137.082 main 1434 1381 PPPP__________ WP191991 18.7653 136.922 32 -1 18.5082 137.245 2 1001 0 0 18.5883 137.287 1 29 1001 18.4074 136.872 TS 37 992 21 303
1991251N12138 1991 62 WP MM KINNA 1991-09-11 00:00:00 TS 19.1250 136.100 1000 tokyo main 1372 1323 OOOO__________ jtwc_wp WP191991 19.3000 136.000 35 0 19.1000 136.100 2 1000 0 0 0 19.1000 136.200 1 29 1000 19.0000 136.100 TS 40 990 21 303
1991251N12138 1991 62 WP MM KINNA 1991-09-11 03:00:00 TS 19.7059 135.223 main 1319 1264 PPPP__________ WP191991 19.8144 135.184 37 0 19.7875 135.061 2 996 0 0 19.6645 135.290 1 33 995 19.5571 135.357 TS 42 987 19 306
1991251N12138 1991 62 WP MM KINNA 1991-09-11 06:00:00 TS 20.2500 134.425 40 992 tokyo main 1251 1191 OOOO__________ jtwc_wp WP191991 20.3000 134.400 40 0 20.4000 134.200 3 40 992 0 9 100 100 0 20.2000 134.500 2 38 990 20.1000 134.600 TS 45 985 17 305
1991251N12138 1991 62 WP MM KINNA 1991-09-11 09:00:00 TS 20.7069 133.716 main 1188 1131 PPPP__________ WP191991 20.7573 133.585 42 0 20.7639 133.653 3 42 991 0 9 100 100 20.6494 133.819 2 38 990 20.6572 133.807 TS 47 982 16 305
1991251N12138 1991 62 WP MM KINNA 1991-09-11 12:00:00 TS 21.1500 133.050 45 990 tokyo main 1120 1063 OOOO__________ jtwc_wp WP191991 21.2000 132.800 45 0 21.1000 133.200 3 45 990 0 9 100 100 0 21.1000 133.200 2 38 990 21.2000 133.000 STS 50 980 16 307
1991251N12138 1991 62 WP MM KINNA 1991-09-11 15:00:00 TS 21.6698 132.346 main 1050 998 PPPP__________ WP191991 21.6497 132.070 47 0 21.6423 132.588 3 47 987 0 9 110 100 21.6647 132.558 2 43 987 21.7225 132.170 STS 50 980 17 308
1991251N12138 1991 62 WP MM KINNA 1991-09-11 18:00:00 TS 22.1750 131.650 50 985 tokyo main 987 949 OOOO__________ jtwc_wp WP191991 22.1000 131.400 50 0 22.2000 131.900 4 50 985 0 2 120 100 0 22.2000 131.900 3 48 985 22.2000 131.400 STS 50 980 16 305
1991251N12138 1991 62 WP MM KINNA 1991-09-11 21:00:00 TS 22.5664 130.975 main 938 883 PPPP__________ WP191991 22.5498 130.762 52 0 22.5587 131.193 4 52 982 0 2 120 110 22.5500 131.191 3 48 985 22.6070 130.754 STS 52 977 15 303
1991251N12138 1991 62 WP MM KINNA 1991-09-12 00:00:00 TS 22.9750 130.325 55 980 tokyo main 870 797 OOOO__________ jtwc_wp WP191991 23.0000 130.200 55 0 23.0000 130.400 4 55 980 9 40 40 9 120 120 0 22.9000 130.500 3 48 985 23.0000 130.200 STS 55 975 15 308
1991251N12138 1991 62 WP MM KINNA 1991-09-12 03:00:00 TS 23.5086 129.686 55 980 tokyo main 797 746 POPP__________ WP191991 23.4571 129.727 60 0 23.7000 129.500 4 55 980 9 40 40 9 150 150 0 23.4274 129.855 3 53 982 23.4499 129.662 STS 57 972 14 316
1991251N12138 1991 62 WP MM KINNA 1991-09-12 06:00:00 TS 24.0000 129.250 55 980 tokyo main 746 699 OOOO__________ jtwc_wp WP191991 23.9000 129.300 65 1 24.2000 129.200 4 55 980 9 40 40 9 150 150 0 24.0000 129.300 3 58 980 23.9000 129.200 STS 60 970 12 320
1991251N12138 1991 62 WP MM KINNA 1991-09-12 09:00:00 TS 24.4093 128.849 55 980 tokyo main 689 655 POPP__________ WP191991 24.3001 128.820 70 1 24.5000 128.900 4 55 980 9 40 40 9 150 150 0 24.5372 128.855 3 58 980 24.2998 128.820 STS 60 967 11 320
1991251N12138 1991 62 WP MM KINNA 1991-09-12 12:00:00 TS 24.8000 128.500 60 975 tokyo main 655 624 OOOO__________ jtwc_wp WP191991 24.7000 128.400 75 1 24.8000 128.600 4 60 975 9 50 50 9 150 150 0 25.0000 128.500 3 58 980 24.7000 128.500 STS 60 965 10 320
1991251N12138 1991 62 WP MM KINNA 1991-09-12 15:00:00 TS 25.1581 128.154 65 970 tokyo main 624 595 POPP__________ WP191991 25.1199 128.090 80 1 25.1000 128.200 5 65 970 9 50 50 9 150 150 0 25.2924 128.162 3 58 980 25.1200 128.163 STS 60 965 9 326
1991251N12138 1991 62 WP MM KINNA 1991-09-12 18:00:00 TS 25.5750 127.925 70 965 tokyo main 596 588 OOOO__________ jtwc_wp WP191991 25.6000 127.900 85 2 25.5000 128.000 5 70 965 9 60 60 9 150 150 0 25.6000 127.900 3 58 980 25.6000 127.900 STS 60 965 11 340
1991251N12138 1991 62 WP MM KINNA 1991-09-12 21:00:00 TS 26.1693 127.755 75 960 tokyo main 596 557 POPP__________ WP191991 26.1549 127.798 87 2 26.3000 127.800 5 75 960 9 60 60 9 160 160 0 26.0749 127.683 3 67 970 26.1474 127.740 STS 65 960 12 351
1991251N12138 1991 62 WP MM KINNA 1991-09-13 00:00:00 TS 26.7750 127.725 80 955 tokyo main 547 473 OOOO__________ jtwc_wp WP191991 26.8000 127.800 90 2 26.8000 127.800 5 80 955 9 70 70 9 180 180 0 26.7000 127.600 4 77 960 26.8000 127.700 T 70 955 14 1
1991251N12138 1991 62 WP MM KINNA 1991-09-13 03:00:00 TS 27.5362 127.773 80 955 tokyo main 473 392 POPP__________ WP191991 27.5125 127.855 90 2 27.6000 127.800 5 80 955 9 70 70 9 180 180 0 27.4625 127.690 4 77 957 27.5700 127.748 T 72 952 16 6
1991251N12138 1991 62 WP MM KINNA 1991-09-13 06:00:00 TS 28.3750 127.925 80 955 tokyo main 383 309 OOOO__________ jtwc_wp WP191991 28.3000 128.000 90 2 28.5000 127.900 5 80 955 9 70 70 9 210 210 0 28.3000 127.900 4 77 955 28.4000 127.900 T 75 950 16 10
1991251N12138 1991 62 WP MM KINNA 1991-09-13 09:00:00 TS 29.1437 128.106 80 955 tokyo main 309 225 POPP__________ WP191991 29.1199 128.198 90 2 29.2000 128.000 5 80 955 9 70 70 9 210 210 0 29.0700 128.121 4 77 955 29.1849 128.106 T 70 955 17 15
1991251N12138 1991 62 WP MM KINNA 1991-09-13 12:00:00 TS 29.9750 128.400 80 955 tokyo main 217 149 OOOO__________ jtwc_wp WP191991 30.0000 128.500 90 2 30.0000 128.300 5 80 955 9 70 70 9 210 210 0 29.9000 128.400 4 77 955 30.0000 128.400 T 65 960 18 17
1991251N12138 1991 62 WP MM KINNA 1991-09-13 15:00:00 TS 30.8781 128.727 80 955 tokyo main 146 94 POPP__________ WP191991 30.9041 128.848 87 2 30.9000 128.700 5 80 955 9 70 70 9 210 210 0 30.8614 128.648 4 77 955 30.8468 128.713 T 60 965 20 20
1991251N12138 1991 62 WP MM KINNA 1991-09-13 18:00:00 TS 31.8750 129.200 75 960 tokyo main 91 0 OOOO__________ jtwc_wp WP191991 31.9000 129.400 85 2 31.9000 129.100 5 75 960 9 70 70 9 210 210 0 31.9000 129.100 4 77 955 31.8000 129.200 STS 55 970 23 25
1991251N12138 1991 62 WP MM KINNA 1991-09-13 20:00:00 TS 32.6175 129.683 70 965 tokyo main 0 0 POPP__________ WP191991 32.6557 129.895 81 1 32.7000 129.700 5 70 965 9 60 60 9 210 210 1 32.5850 129.560 4 73 960 32.5293 129.575 STS 51 973 26 31
1991251N12138 1991 62 WP MM KINNA 1991-09-13 21:00:00 TS 32.9992 129.990 65 970 tokyo main 0 0 POPP__________ WP191991 33.0485 130.194 80 1 33.1000 130.100 5 65 970 9 60 60 9 210 210 0 32.9327 129.851 4 72 962 32.9156 129.816 STS 50 975 28 36
1991251N12138 1991 62 WP MM KINNA 1991-09-14 00:00:00 TS 34.1000 130.980 60 980 tokyo main 0 0 OOOO__________ jtwc_wp WP191991 34.2000 131.300 75 1 34.1000 130.700 4 60 980 9 50 50 9 210 210 1 34.0000 131.000 4 68 970 34.1000 130.900 TS 45 980 30 45
1991251N12138 1991 62 WP MM KINNA 1991-09-14 03:00:00 TS 35.1587 132.572 55 985 tokyo main 0 0 POPP__________ WP191991 35.2223 132.637 70 1 35.1000 132.600 4 55 985 9 50 50 4 300 200 0 35.1159 132.428 4 63 975 35.2342 132.677 TS 40 982 35 54
1991251N12138 1991 62 WP MM KINNA 1991-09-14 06:00:00 TS 36.1154 134.408 55 990 tokyo main 55 26 OOOO__________ jtwc_wp WP191991 36.1000 134.300 65 1 36.0000 134.400 4 55 990 9 50 50 4 300 200 0 36.2000 134.400 3 58 980 36.3000 134.900 TS 35 985 38 60
1991251N12138 1991 62 WP MM KINNA 1991-09-14 09:00:00 TS 37.0193 136.608 45 992 tokyo main 17 0 POP___________ WP191991 36.8087 136.262 60 0 37.0000 136.400 3 45 992 0 2 300 200 0 37.1965 137.076 3 48 985 TS 41 66
1991251N12138 1991 62 WP MM KINNA 1991-09-14 11:00:00 TS 37.5458 138.352 45 996 tokyo main 14 0 POP___________ WP191991 37.2113 137.677 56 0 37.5000 138.000 3 45 996 0 2 300 200 1 37.7588 139.041 3 41 988 TS 54 70
1991251N12138 1991 62 WP MM KINNA 1991-09-14 12:00:00 MX 37.9333 139.822 1000 tokyo main 0 0 OOO___________ jtwc_wp WP191991 37.4000 138.400 55 0 38.0000 140.000 6 1000 0 0 0 38.0000 140.000 2 38 990 56 74
1991251N12138 1991 62 WP MM KINNA 1991-09-14 15:00:00 MX 38.5884 142.954 main 112 112 _PP___________ WP191991 -1 38.6676 143.421 6 1002 0 0 38.5091 142.487 2 33 995 42 75
1991251N12138 1991 62 WP MM KINNA 1991-09-14 18:00:00 ET 39.0000 145.000 1004 tokyo main 255 255 _OO___________ -1 39.0000 145.000 6 1004 0 0 0 39.0000 145.000 9 29 1000 41 71
1991251N12138 1991 62 WP MM KINNA 1991-09-14 21:00:00 ET 39.9343 147.982 main 421 420 _PP___________ -1 40.0780 147.976 6 1004 0 0 39.7906 147.988 9 29 1000 49 69
1991251N12138 1991 62 WP MM KINNA 1991-09-15 00:00:00 ET 40.7500 151.000 1004 tokyo main 523 523 _OO___________ -1 41.0000 151.000 6 1004 0 0 0 40.5000 151.000 9 29 1000 43 76
1991251N12138 1991 62 WP MM KINNA 1991-09-15 03:00:00 ET 40.9899 153.513 main 596 596 _PP___________ -1 41.1335 153.519 6 1004 0 0 40.8463 153.508 9 29 1001 38 86
1991251N12138 1991 62 WP MM KINNA 1991-09-15 06:00:00 ET 41.0000 156.000 1004 tokyo main 719 719 _OO___________ -1 41.0000 156.000 6 1004 0 0 0 41.0000 156.000 9 29 1002 42 89
1991251N12138 1991 62 WP MM KINNA 1991-09-15 09:00:00 ET 41.0268 159.077 main 898 898 _PP___________ -1 41.0081 159.074 6 1004 0 0 41.0455 159.079 9 26 1003 45 90
1991251N12138 1991 62 WP MM KINNA 1991-09-15 12:00:00 ET 41.0000 162.000 1004 tokyo main 1088 1088 _OO___________ -1 41.0000 162.000 6 1004 0 0 0 41.0000 162.000 9 23 1004 38 91
1991251N12138 1991 62 WP MM KINNA 1991-09-15 15:00:00 ET 40.9874 164.149 main 1201 1201 _PP___________ -1 40.9874 164.149 6 1003 0 0 40.9874 164.149 9 23 1004 30 90
1991251N12138 1991 62 WP MM KINNA 1991-09-15 18:00:00 ET 41.0000 166.000 1002 tokyo main 1284 1284 _OO___________ -1 41.0000 166.000 6 1002 0 0 0 41.0000 166.000 9 23 1004 28 90
1991251N12138 1991 62 WP MM KINNA 1991-09-15 21:00:00 ET 40.9923 167.926 main 1378 1378 _PP___________ -1 40.9923 167.926 6 1001 0 0 40.9923 167.926 9 23 1003 30 90
1991251N12138 1991 62 WP MM KINNA 1991-09-16 00:00:00 ET 41.0000 170.000 1000 tokyo main 1491 1491 _OO___________ -1 41.0000 170.000 6 1000 0 0 0 41.0000 170.000 9 23 1002 34 90
1991251N12138 1991 62 WP MM KINNA 1991-09-16 03:00:00 ET 41.0044 172.417 main 1612 1612 _PP___________ -1 40.9991 172.426 6 999 0 0 41.0149 172.400 9 23 1001 38 90
1991251N12138 1991 62 WP MM KINNA 1991-09-16 06:00:00 ET 41.0000 175.000 998 tokyo main 1744 1668 _OO___________ -1 41.0000 175.000 6 998 0 0 0 41.0000 175.000 9 23 1000 39 90
1991251N12138 1991 62 WP MM KINNA 1991-09-16 09:00:00 ET 41.0030 177.649 main 1663 1565 _P____________ -1 41.0030 177.649 6 998 0 0 9 38 90
1991251N12138 1991 62 EP CP KINNA 1991-09-16 12:00:00 ET 41.0000 180.000 998 tokyo main 1561 1501 _O____________ -1 41.0000 180.000 6 998 0 0 0 30 90
1991251N12138 1991 62 EP CP KINNA 1991-09-16 15:00:00 ET 40.9976 181.700 main 1497 1457 _P____________ -1 40.9976 -178.300 6 998 0 0 23 90
1991251N12138 1991 62 EP CP KINNA 1991-09-16 18:00:00 ET 41.0000 183.000 main 1454 _O____________ -1 41.0000 183.000 6 998 0 0 0 20 90

デジタル台風データ・検索

IBTrACS Databaseについて

本データベースは、米国NOAAが公開する1842年以降の世界の熱帯低気圧のベストトラックデータアーカイブInternational Best Track Archive for Climate Stewardship (IBTrACS)を、ウェブで閲覧しやすい形式に変換したものです。

最終更新日:2021-10-27